Great Valley, New York
Current Conditions -  °F | °C
As of 1:15 PM on Saturday 25 Oct 2014 (Local Time) from KOLE Reporting Station
Broken Clouds Broken Clouds  
Wind Chill: 59°   Ceiling: 5000
Heat Index: 59°   Visibility: 10mi
Dew Point: 43°   Wind: 10mph
Humidity: 55%   Direction: 250°WSW
Pressure: 29.72"   Gusts: 20mph
Location:  42.21°N, 78.64°W
Report Text: KOLE 251715Z AUTO 25009G17KT 210V290 10SM BKN050 15/06 A2972 RMK AO2
Loading
Personal Weather Stations






























Interactive Weather Map New forecast layout! Learn more

10-Day Weather Forecast

Advertisements
Track Severe Weather on mobile